Quinton, Virginia
Current Conditions -  °F | °C
As of 1:15 AM on Thursday 29 Jan 2015 (Local Time) from KW96 Reporting Station
Clear Clear  
Wind Chill: 26°   Ceiling: Unl
Heat Index: 26°   Visibility: 10mi
Dew Point:   Wind: 0mph
Humidity: 44%   Direction: NA
Pressure: 30.35"   Gusts: NA
Location:  37.53°N, 77.12°W
Report Text: KW96 290615Z AUTO 00000KT 10SM CLR M03/M14 A3035 RMK AO1 T10331141
Loading
Personal Weather Stations






























Interactive Weather Map New forecast layout! Learn more

10-Day Weather Forecast

Advertisements
Track Severe Weather on mobile